Terminal Aerodrome Forecast
Issued by NWS

Home | Current Version | Previous Version | Text Only | Print | Product List | Glossary On
Versions: 1 2 3 4 5 6 7 8 9 10 11 12 13
000
FTUS42 KMLB 282322
TAFSFB
TAF
KSFB 282322Z 2900/2924 12010KT P6SM SCT250
     FM290900 13005KT P6SM FEW004 SCT010
     FM291400 12013G23KT P6SM SCT025=

USA.gov is the U.S. government's official web portal to all federal, state and local government web resources and services.